Palmeira das Missoes, Brazil
Current Conditions -  °F | °C
As of 3:00 PM on Thursday 23 Oct 2014 (Local Time) from SBPF Reporting Station
Clear Clear  
Wind Chill: 77°   Ceiling: Unl
Heat Index: 79°   Visibility: 6mi
Dew Point: 59°   Wind: 0mph
Humidity: 54%   Direction: NA
Pressure: 30.06"   Gusts: NA
Location:  27.9°S, 53.31°W
Report Text: SBPF 231700Z 00000KT CAVOK 25/15 Q1018
Loading
Personal Weather Stations






























Interactive Weather Map
Tropical Storm Tracking
New forecast layout! Learn more

10-Day Weather Forecast

Advertisements
Track Severe Weather on mobile